sensor_id;sensor_type;location;lat;lon;timestamp;pressure;altitude;pressure_sealevel;temperature;humidity
59939;BME280;45801;51.810;19.444;2023-02-14T00:10:28;100792.87;;;4.39;72.78
59939;BME280;45801;51.810;19.444;2023-02-14T00:14:13;100791.92;;;4.35;72.84
59939;BME280;45801;51.810;19.444;2023-02-14T00:17:02;100792.17;;;4.30;72.99
59939;BME280;45801;51.810;19.444;2023-02-14T00:19:31;100791.76;;;4.31;72.95
59939;BME280;45801;51.810;19.444;2023-02-14T00:22:00;100790.98;;;4.27;73.22
59939;BME280;45801;51.810;19.444;2023-02-14T00:24:34;100790.14;;;4.29;73.18
59939;BME280;45801;51.810;19.444;2023-02-14T00:27:00;100785.56;;;4.24;73.09
59939;BME280;45801;51.810;19.444;2023-02-14T00:29:29;100784.77;;;4.21;73.35
59939;BME280;45801;51.810;19.444;2023-02-14T00:31:59;100786.55;;;4.16;73.69
59939;BME280;45801;51.810;19.444;2023-02-14T00:34:26;100785.24;;;4.15;73.53
59939;BME280;45801;51.810;19.444;2023-02-14T00:36:55;100789.05;;;4.17;73.48
59939;BME280;45801;51.810;19.444;2023-02-14T00:39:28;100791.48;;;4.17;73.33
59939;BME280;45801;51.810;19.444;2023-02-14T00:41:55;100796.98;;;4.07;73.68
59939;BME280;45801;51.810;19.444;2023-02-14T00:44:25;100794.48;;;4.02;74.06
59939;BME280;45801;51.810;19.444;2023-02-14T00:46:52;100793.13;;;3.97;74.18
59939;BME280;45801;51.810;19.444;2023-02-14T00:49:18;100792.73;;;3.93;74.48
59939;BME280;45801;51.810;19.444;2023-02-14T00:51:46;100793.43;;;3.95;74.52
59939;BME280;45801;51.810;19.444;2023-02-14T00:54:18;100797.74;;;3.97;74.50
59939;BME280;45801;51.810;19.444;2023-02-14T00:56:46;100794.82;;;3.99;74.39
59939;BME280;45801;51.810;19.444;2023-02-14T00:59:13;100797.11;;;4.01;74.49
59939;BME280;45801;51.810;19.444;2023-02-14T01:01:46;100795.48;;;4.00;74.55
59939;BME280;45801;51.810;19.444;2023-02-14T01:04:14;100797.38;;;4.02;74.61
59939;BME280;45801;51.810;19.444;2023-02-14T01:07:01;100789.68;;;3.99;74.57
59939;BME280;45801;51.810;19.444;2023-02-14T01:12:41;100791.30;;;4.02;74.76
59939;BME280;45801;51.810;19.444;2023-02-14T01:16:21;100785.64;;;4.06;74.63
59939;BME280;45801;51.810;19.444;2023-02-14T01:19:51;100783.50;;;4.00;74.68
59939;BME280;45801;51.810;19.444;2023-02-14T01:23:20;100780.21;;;3.99;74.91
59939;BME280;45801;51.810;19.444;2023-02-14T01:26:10;100777.81;;;4.04;74.62
59939;BME280;45801;51.810;19.444;2023-02-14T01:29:12;100775.75;;;4.10;74.41
59939;BME280;45801;51.810;19.444;2023-02-14T01:32:38;100777.98;;;4.12;74.39
59939;BME280;45801;51.810;19.444;2023-02-14T01:36:39;100781.00;;;4.14;74.23
59939;BME280;45801;51.810;19.444;2023-02-14T01:39:20;100782.05;;;4.27;73.94
59939;BME280;45801;51.810;19.444;2023-02-14T01:42:14;100784.87;;;4.35;73.46
59939;BME280;45801;51.810;19.444;2023-02-14T01:45:28;100774.33;;;4.45;73.23
59939;BME280;45801;51.810;19.444;2023-02-14T01:48:37;100769.58;;;4.46;73.19
59939;BME280;45801;51.810;19.444;2023-02-14T01:51:55;100767.21;;;4.39;73.53
59939;BME280;45801;51.810;19.444;2023-02-14T01:54:59;100765.39;;;4.42;73.42
59939;BME280;45801;51.810;19.444;2023-02-14T01:57:39;100763.94;;;4.47;73.29
59939;BME280;45801;51.810;19.444;2023-02-14T02:00:11;100761.95;;;4.54;72.92
59939;BME280;45801;51.810;19.444;2023-02-14T02:03:04;100763.41;;;4.59;72.57
59939;BME280;45801;51.810;19.444;2023-02-14T02:06:01;100770.66;;;4.53;72.50
59939;BME280;45801;51.810;19.444;2023-02-14T02:08:37;100771.62;;;4.52;72.49
59939;BME280;45801;51.810;19.444;2023-02-14T02:11:13;100772.33;;;4.48;72.72
59939;BME280;45801;51.810;19.444;2023-02-14T02:14:05;100770.80;;;4.54;72.67
